Time;durP1;ratioP1;P1;durP2;ratioP2;P2;SDS_P1;SDS_P2;PMS_P1;PMS_P2;Temp;Humidity;BMP_temperature;BMP_pressure;BME280_temperature;BME280_humidity;BME280_pressure;Samples;Min_cycle;Max_cycle;Signal;HPM_P1;HPM_P2
2023/01/15 00:00:58;;;;;;;4.45;1.02;;;8.00;99.90;;;;;;5053059;28;20568;-54
2023/01/15 00:03:24;;;;;;;4.53;1.42;;;7.90;99.90;;;;;;5051653;28;20094;-52
2023/01/15 00:05:50;;;;;;;4.55;1.30;;;7.80;99.90;;;;;;5058448;28;20032;-55
2023/01/15 00:08:15;;;;;;;4.85;1.30;;;7.80;99.90;;;;;;5058202;28;20606;-53
2023/01/15 00:10:41;;;;;;;5.45;1.10;;;7.90;99.90;;;;;;5059856;28;20474;-53
2023/01/15 00:13:06;;;;;;;4.93;1.20;;;7.90;99.90;;;;;;5055244;28;20051;-54
2023/01/15 00:15:32;;;;;;;8.48;1.30;;;7.90;99.90;;;;;;5065625;28;20075;-54
2023/01/15 00:17:57;;;;;;;6.03;1.55;;;8.00;99.90;;;;;;5056009;28;20040;-54
2023/01/15 00:20:23;;;;;;;5.18;1.45;;;7.90;99.90;;;;;;5052250;28;20411;-53
2023/01/15 00:22:49;;;;;;;3.28;1.00;;;8.10;99.90;;;;;;5056765;28;20551;-55
2023/01/15 00:27:58;;;;;;;4.15;1.45;;;7.80;99.90;;;;;;5058048;28;20045;-55
2023/01/15 00:30:24;;;;;;;5.22;1.20;;;7.50;99.90;;;;;;5050627;28;20036;-54
2023/01/15 00:32:50;;;;;;;5.43;1.15;;;7.50;99.90;;;;;;5052474;28;20037;-53
2023/01/15 00:35:20;;;;;;;5.80;1.50;;;7.60;99.90;;;;;;5062503;28;20115;-52
2023/01/15 00:37:46;;;;;;;2.80;1.17;;;7.90;99.90;;;;;;5060973;28;20037;-53
2023/01/15 00:40:13;;;;;;;6.20;1.48;;;8.10;99.90;;;;;;5056694;28;20044;-54
2023/01/15 00:42:39;;;;;;;4.30;1.00;;;8.10;99.90;;;;;;5053640;28;20048;-54
2023/01/15 00:45:09;;;;;;;3.63;1.20;;;8.10;99.90;;;;;;5059010;28;20063;-54
2023/01/15 00:47:36;;;;;;;3.88;1.00;;;7.90;99.90;;;;;;5058811;28;20036;-52
2023/01/15 00:50:04;;;;;;;4.55;1.42;;;8.00;99.90;;;;;;5056448;28;20053;-53
2023/01/15 00:52:30;;;;;;;4.18;0.85;;;8.00;99.90;;;;;;5055047;28;20044;-53
2023/01/15 00:54:55;;;;;;;2.67;1.00;;;7.90;99.90;;;;;;5060876;28;20032;-53
2023/01/15 00:57:21;;;;;;;3.05;0.98;;;7.80;99.90;;;;;;5055212;28;20485;-54
2023/01/15 00:59:46;;;;;;;5.53;0.90;;;7.90;99.90;;;;;;5056507;28;20044;-54
2023/01/15 01:02:12;;;;;;;7.05;1.08;;;7.90;99.90;;;;;;5053638;28;20048;-54
2023/01/15 01:04:38;;;;;;;4.45;0.90;;;7.70;99.90;;;;;;5056923;28;20025;-55
2023/01/15 01:07:03;;;;;;;1.85;0.60;;;7.70;99.90;;;;;;5063478;28;20029;-55
2023/01/15 01:09:29;;;;;;;4.07;0.93;;;7.80;99.90;;;;;;5059395;28;20029;-55
2023/01/15 01:11:54;;;;;;;1.90;0.82;;;7.80;99.90;;;;;;5057360;28;20499;-55
2023/01/15 01:14:20;;;;;;;2.70;0.82;;;7.90;99.90;;;;;;5056409;28;20484;-55
2023/01/15 01:16:45;;;;;;;3.03;0.80;;;7.80;99.90;;;;;;5054010;28;20419;-55
2023/01/15 01:19:21;;;;;;;5.15;1.10;;;7.70;99.90;;;;;;5057893;28;20025;-54
2023/01/15 01:21:48;;;;;;;2.50;0.80;;;7.80;99.90;;;;;;5056271;28;20075;-53
2023/01/15 01:24:17;;;;;;;4.28;0.80;;;7.70;99.90;;;;;;5058771;28;20365;-55
2023/01/15 01:26:44;;;;;;;2.85;0.63;;;7.70;99.90;;;;;;5051859;28;20212;-56
2023/01/15 01:29:11;;;;;;;2.60;0.70;;;7.80;99.90;;;;;;5058075;28;20613;-54
2023/01/15 01:31:37;;;;;;;3.88;0.90;;;7.70;99.90;;;;;;5060049;28;20047;-54
2023/01/15 01:34:03;;;;;;;3.17;0.70;;;7.70;99.90;;;;;;5061144;28;20028;-55
2023/01/15 01:36:33;;;;;;;2.97;0.73;;;7.80;99.90;;;;;;5057704;28;20049;-56
2023/01/15 01:39:00;;;;;;;5.78;0.90;;;7.70;99.90;;;;;;5052944;28;20036;-54
2023/01/15 01:41:26;;;;;;;2.38;0.73;;;7.80;99.90;;;;;;5059148;28;20082;-55
2023/01/15 01:44:04;;;;;;;4.07;1.02;;;7.70;99.90;;;;;;5060360;28;20119;-55
2023/01/15 01:46:32;;;;;;;4.45;0.90;;;7.60;99.90;;;;;;5063177;28;20037;-53
2023/01/15 01:49:11;;;;;;;5.32;1.10;;;7.50;99.90;;;;;;5053930;28;20051;-55
2023/01/15 01:51:44;;;;;;;4.65;1.20;;;7.50;99.90;;;;;;5060220;28;20036;-55
2023/01/15 01:54:13;;;;;;;4.07;0.90;;;7.80;99.90;;;;;;5061595;28;20078;-54
2023/01/15 01:56:38;;;;;;;5.50;0.70;;;7.70;99.90;;;;;;5053275;28;20033;-53
2023/01/15 01:59:05;;;;;;;4.50;1.00;;;7.80;99.90;;;;;;5058671;28;20162;-55
2023/01/15 02:01:32;;;;;;;3.58;1.08;;;7.90;99.90;;;;;;5052065;28;20443;-55
2023/01/15 02:03:58;;;;;;;5.18;1.02;;;7.70;99.90;;;;;;5052508;28;20519;-52
2023/01/15 02:06:25;;;;;;;3.13;0.93;;;7.70;99.90;;;;;;5049538;28;20066;-54
2023/01/15 02:08:51;;;;;;;8.15;1.10;;;7.80;99.90;;;;;;5060258;28;20437;-54
2023/01/15 02:11:20;;;;;;;4.00;0.90;;;7.80;99.90;;;;;;5051575;28;20041;-53
2023/01/15 02:14:11;;;;;;;6.32;1.17;;;7.80;99.90;;;;;;5061557;28;20459;-54
2023/01/15 02:16:49;;;;;;;3.50;0.93;;;7.80;99.90;;;;;;5063245;28;20110;-53
2023/01/15 02:19:21;;;;;;;10.93;0.80;;;7.90;99.90;;;;;;5054210;28;20106;-55
2023/01/15 02:21:46;;;;;;;4.90;1.05;;;7.90;99.90;;;;;;5060460;28;20047;-53
2023/01/15 02:24:46;;;;;;;4.72;1.00;;;8.00;99.90;;;;;;5057927;28;20040;-54
2023/01/15 02:27:20;;;;;;;3.03;0.80;;;7.90;99.90;;;;;;5033355;28;20029;-54
2023/01/15 02:30:12;;;;;;;4.72;1.00;;;7.60;99.90;;;;;;5059650;28;20434;-54
2023/01/15 02:32:51;;;;;;;5.00;0.90;;;7.50;99.90;;;;;;5056451;28;20542;-55
2023/01/15 02:35:38;;;;;;;6.25;0.90;;;7.40;99.90;;;;;;5056273;28;20036;-54
2023/01/15 02:38:08;;;;;;;5.20;0.80;;;7.50;99.90;;;;;;5057773;28;20430;-55
2023/01/15 02:40:36;;;;;;;6.40;1.10;;;7.60;99.90;;;;;;5056541;28;20040;-55
2023/01/15 02:43:02;;;;;;;3.20;0.90;;;7.60;99.90;;;;;;5054701;28;20036;-55
2023/01/15 02:45:33;;;;;;;7.55;0.80;;;7.70;99.90;;;;;;5052500;28;20067;-55
2023/01/15 02:48:04;;;;;;;3.97;1.02;;;7.70;99.90;;;;;;5063936;28;20492;-54
2023/01/15 02:50:41;;;;;;;4.45;0.82;;;7.80;99.90;;;;;;5053317;28;20032;-54
2023/01/15 02:53:11;;;;;;;5.13;0.80;;;7.50;99.90;;;;;;5062899;28;20125;-53
2023/01/15 02:55:49;;;;;;;4.00;1.02;;;7.70;99.90;;;;;;5058242;28;20048;-53
2023/01/15 02:58:23;;;;;;;5.38;1.13;;;7.70;99.90;;;;;;5053388;28;20036;-54
2023/01/15 03:00:53;;;;;;;6.90;0.82;;;7.70;99.90;;;;;;5063297;28;20036;-54
2023/01/15 03:03:43;;;;;;;6.55;1.00;;;7.70;99.90;;;;;;5058669;28;20376;-55
2023/01/15 03:06:33;;;;;;;5.35;0.90;;;7.80;99.90;;;;;;5065917;28;20608;-54
2023/01/15 03:09:00;;;;;;;4.53;1.60;;;7.80;99.90;;;;;;5059160;28;20052;-56
2023/01/15 03:11:26;;;;;;;6.50;1.20;;;7.70;99.90;;;;;;5060841;28;20056;-56
2023/01/15 03:14:20;;;;;;;3.13;0.80;;;7.70;99.90;;;;;;5061720;28;20361;-54
2023/01/15 03:17:13;;;;;;;6.28;0.98;;;7.80;99.90;;;;;;5061413;28;20037;-54
2023/01/15 03:19:46;;;;;;;3.63;0.68;;;7.70;99.90;;;;;;5052645;28;20036;-55
2023/01/15 03:22:12;;;;;;;4.93;1.00;;;7.60;99.90;;;;;;5059245;28;20020;-55
2023/01/15 03:24:47;;;;;;;6.63;1.17;;;7.40;99.90;;;;;;5059463;28;20028;-54
2023/01/15 03:27:14;;;;;;;3.92;0.93;;;7.40;99.90;;;;;;5062248;28;20108;-54
2023/01/15 03:29:46;;;;;;;5.28;1.40;;;7.30;99.90;;;;;;5064100;28;20037;-55
2023/01/15 03:32:14;;;;;;;3.83;1.13;;;7.30;99.90;;;;;;5060472;28;20029;-56
2023/01/15 03:34:52;;;;;;;3.88;0.88;;;7.30;99.90;;;;;;5061679;28;20041;-55
2023/01/15 03:37:20;;;;;;;7.68;0.95;;;7.30;99.90;;;;;;5063003;28;20590;-55
2023/01/15 03:39:46;;;;;;;2.25;0.95;;;7.40;99.90;;;;;;5065657;28;20108;-54
2023/01/15 03:42:27;;;;;;;5.00;1.10;;;7.40;99.90;;;;;;5056756;28;20028;-56
2023/01/15 03:45:21;;;;;;;5.03;1.20;;;7.50;99.90;;;;;;5061262;28;20492;-56
2023/01/15 03:48:08;;;;;;;9.65;1.63;;;7.60;99.90;;;;;;5060840;28;20036;-56
2023/01/15 03:50:51;;;;;;;6.43;1.30;;;7.50;99.90;;;;;;5058012;28;20124;-55
2023/01/15 03:53:47;;;;;;;4.78;0.95;;;7.50;99.90;;;;;;5052492;28;20088;-54
2023/01/15 03:56:35;;;;;;;6.80;0.90;;;7.50;99.90;;;;;;5061135;28;20139;-54
2023/01/15 03:59:16;;;;;;;6.90;1.30;;;7.40;99.90;;;;;;5056867;28;20044;-53
2023/01/15 04:01:44;;;;;;;7.72;1.60;;;7.60;99.90;;;;;;5060693;28;20036;-55
2023/01/15 04:04:12;;;;;;;9.48;1.60;;;7.60;99.90;;;;;;5053439;28;20047;-55
2023/01/15 04:06:38;;;;;;;7.78;1.50;;;7.60;99.90;;;;;;5055204;28;20655;-55
2023/01/15 04:09:07;;;;;;;7.78;1.10;;;7.70;99.90;;;;;;5060561;28;20039;-52
2023/01/15 04:11:33;;;;;;;7.85;1.70;;;7.60;99.90;;;;;;5062963;28;20059;-53
2023/01/15 04:13:58;;;;;;;6.53;1.15;;;7.60;99.90;;;;;;5054696;28;20443;-54
2023/01/15 04:16:27;;;;;;;8.57;1.17;;;7.60;99.90;;;;;;5054281;28;20041;-54
2023/01/15 04:18:53;;;;;;;7.40;1.40;;;7.60;99.90;;;;;;5066952;28;20429;-53
2023/01/15 04:21:20;;;;;;;9.13;1.73;;;7.60;99.90;;;;;;5064571;28;20040;-53
2023/01/15 04:23:45;;;;;;;7.53;1.30;;;7.60;99.90;;;;;;5060914;28;20025;-55
2023/01/15 04:26:12;;;;;;;7.72;1.83;;;7.70;99.90;;;;;;5058977;28;20415;-54
2023/01/15 04:28:37;;;;;;;7.40;1.42;;;7.50;99.90;;;;;;5050936;28;20040;-54
2023/01/15 04:31:03;;;;;;;7.85;1.60;;;7.40;99.90;;;;;;5056292;28;20806;-55
2023/01/15 04:33:28;;;;;;;7.03;1.20;;;7.40;99.90;;;;;;5060513;28;20043;-54
2023/01/15 04:35:54;;;;;;;7.55;1.17;;;7.50;99.90;;;;;;5061524;28;20403;-54
2023/01/15 04:38:19;;;;;;;11.00;1.83;;;7.50;99.90;;;;;;5060605;28;20033;-54
2023/01/15 04:46:14;;;;;;;8.45;1.40;;;7.70;99.90;;;;;;5055655;28;20063;-54
2023/01/15 04:48:40;;;;;;;12.18;1.40;;;7.70;99.90;;;;;;5056284;28;20026;-55
2023/01/15 04:51:06;;;;;;;8.18;1.40;;;7.80;99.90;;;;;;5053679;28;20034;-54
2023/01/15 04:53:32;;;;;;;7.95;1.38;;;7.80;99.90;;;;;;5059095;28;20495;-54
2023/01/15 04:56:02;;;;;;;6.63;1.10;;;7.70;99.90;;;;;;5059458;28;20050;-56
2023/01/15 04:58:28;;;;;;;6.78;1.70;;;7.60;99.90;;;;;;5061207;28;20057;-54
2023/01/15 05:00:54;;;;;;;12.05;1.90;;;7.70;99.90;;;;;;5058997;28;20064;-54
2023/01/15 05:03:19;;;;;;;10.90;1.63;;;7.70;99.90;;;;;;5050032;28;20559;-54
2023/01/15 05:05:45;;;;;;;11.45;1.85;;;7.60;99.90;;;;;;5064019;28;20475;-55
2023/01/15 05:08:10;;;;;;;9.00;1.30;;;7.70;99.90;;;;;;5062468;28;20079;-55
2023/01/15 05:10:36;;;;;;;6.45;1.58;;;7.70;99.90;;;;;;5060497;28;20035;-55
2023/01/15 05:13:01;;;;;;;7.53;1.33;;;7.70;99.90;;;;;;5054797;28;20036;-56
2023/01/15 05:15:27;;;;;;;13.90;1.45;;;7.70;99.90;;;;;;5057996;28;20028;-54
2023/01/15 05:17:52;;;;;;;7.47;1.70;;;7.70;99.90;;;;;;5060616;28;20032;-54
2023/01/15 05:20:18;;;;;;;8.57;1.65;;;7.60;99.90;;;;;;5063653;28;20021;-56
2023/01/15 05:22:43;;;;;;;9.70;1.85;;;7.60;99.90;;;;;;5067916;28;20106;-54
2023/01/15 05:25:09;;;;;;;6.55;1.42;;;7.60;99.90;;;;;;5056069;28;20112;-54
2023/01/15 05:27:34;;;;;;;8.25;1.50;;;7.60;99.90;;;;;;5062816;28;20057;-53
2023/01/15 05:30:00;;;;;;;10.02;1.92;;;7.60;99.90;;;;;;5058252;28;20377;-55
2023/01/15 05:32:26;;;;;;;8.05;1.45;;;7.60;99.90;;;;;;5063512;28;20668;-55
2023/01/15 05:34:51;;;;;;;10.80;1.42;;;7.70;99.90;;;;;;5055535;28;20059;-55
2023/01/15 05:37:17;;;;;;;7.95;1.60;;;7.80;99.90;;;;;;5054902;28;20445;-54
2023/01/15 05:39:42;;;;;;;11.63;1.55;;;7.70;99.90;;;;;;5067572;28;20029;-54
2023/01/15 05:42:08;;;;;;;10.60;1.85;;;7.70;99.90;;;;;;5063758;28;20028;-55
2023/01/15 05:44:33;;;;;;;9.50;1.55;;;7.70;99.90;;;;;;5057942;28;20373;-54
2023/01/15 05:47:06;;;;;;;8.35;1.50;;;7.80;99.90;;;;;;5053379;28;20365;-55
2023/01/15 05:49:32;;;;;;;8.00;1.55;;;7.70;99.90;;;;;;5059333;28;20043;-55
2023/01/15 05:51:59;;;;;;;9.77;1.90;;;7.70;99.90;;;;;;5064379;28;20098;-54
2023/01/15 05:54:28;;;;;;;12.52;1.63;;;7.70;99.90;;;;;;5061620;28;20029;-54
2023/01/15 05:56:54;;;;;;;10.38;1.60;;;7.80;99.90;;;;;;5059304;28;20067;-55
2023/01/15 05:59:22;;;;;;;8.80;1.50;;;7.80;99.90;;;;;;5052386;28;20504;-55
2023/01/15 06:01:48;;;;;;;11.07;1.70;;;7.80;99.90;;;;;;5058572;28;20044;-55
2023/01/15 06:04:16;;;;;;;8.52;1.52;;;7.70;99.90;;;;;;5053629;28;20487;-54
2023/01/15 06:06:42;;;;;;;10.77;1.63;;;7.70;99.90;;;;;;5060890;28;20140;-54
2023/01/15 06:09:08;;;;;;;8.68;1.77;;;7.70;99.90;;;;;;5052704;28;20124;-55
2023/01/15 06:11:34;;;;;;;8.80;1.27;;;7.70;99.90;;;;;;5059316;28;20043;-53
2023/01/15 06:13:59;;;;;;;7.68;1.48;;;7.80;99.90;;;;;;5053342;28;20472;-54
2023/01/15 06:16:25;;;;;;;6.75;1.30;;;7.60;99.90;;;;;;5061330;28;20037;-53
2023/01/15 06:18:51;;;;;;;12.27;2.03;;;7.60;99.90;;;;;;5061512;28;20516;-55
2023/01/15 06:21:17;;;;;;;10.48;1.50;;;7.70;99.90;;;;;;5052693;28;20053;-53
2023/01/15 06:23:43;;;;;;;10.23;1.83;;;7.70;99.90;;;;;;5057183;28;20484;-55
2023/01/15 06:26:15;;;;;;;8.55;1.85;;;7.70;99.90;;;;;;5064810;28;20480;-56
2023/01/15 06:28:41;;;;;;;10.52;1.83;;;7.70;99.90;;;;;;5063618;28;20479;-53
2023/01/15 06:31:13;;;;;;;8.70;1.58;;;7.70;99.90;;;;;;5062703;28;20059;-54
2023/01/15 06:33:39;;;;;;;6.45;1.52;;;7.70;99.90;;;;;;5052176;28;20048;-55
2023/01/15 06:36:06;;;;;;;9.02;1.52;;;7.70;99.90;;;;;;5060357;28;20036;-54
2023/01/15 06:38:32;;;;;;;11.57;2.33;;;7.70;99.90;;;;;;5059548;28;20044;-53
2023/01/15 06:40:59;;;;;;;12.18;1.63;;;7.80;99.90;;;;;;5061327;28;20035;-54
2023/01/15 06:48:54;;;;;;;7.30;1.55;;;7.70;99.90;;;;;;5056945;28;20704;-54
2023/01/15 06:51:20;;;;;;;6.22;1.33;;;7.60;99.90;;;;;;5056700;28;20037;-53
2023/01/15 06:53:46;;;;;;;7.45;1.75;;;7.60;99.90;;;;;;5058365;28;20044;-53
2023/01/15 06:56:15;;;;;;;10.88;1.90;;;7.60;99.90;;;;;;5056082;28;20611;-53
2023/01/15 06:58:42;;;;;;;8.05;1.50;;;7.50;99.90;;;;;;5060045;28;20043;-52
2023/01/15 07:01:14;;;;;;;8.30;1.75;;;7.60;99.90;;;;;;5058596;28;20059;-55
2023/01/15 07:03:40;;;;;;;5.10;1.10;;;7.60;99.90;;;;;;5054601;28;20040;-54
2023/01/15 07:06:11;;;;;;;6.45;1.40;;;7.60;99.90;;;;;;5056588;28;20403;-54
2023/01/15 07:08:38;;;;;;;9.57;1.42;;;7.70;99.90;;;;;;5053714;28;20548;-55
2023/01/15 07:11:07;;;;;;;7.50;1.20;;;7.70;99.90;;;;;;5061409;28;20050;-55
2023/01/15 07:13:33;;;;;;;11.38;1.50;;;7.70;99.90;;;;;;5055018;28;20036;-54
2023/01/15 07:16:00;;;;;;;7.07;1.50;;;7.60;99.90;;;;;;5052942;28;20468;-55
2023/01/15 07:18:27;;;;;;;9.25;1.55;;;7.70;99.90;;;;;;5052959;28;20032;-55
2023/01/15 07:20:57;;;;;;;10.13;1.70;;;7.70;99.90;;;;;;5061623;28;20149;-55
2023/01/15 07:23:24;;;;;;;7.82;1.67;;;7.60;99.90;;;;;;5062767;28;20068;-56
2023/01/15 07:25:52;;;;;;;7.63;1.20;;;7.60;99.90;;;;;;5062167;28;20509;-55
2023/01/15 07:28:18;;;;;;;7.72;1.40;;;7.60;99.90;;;;;;5058097;28;20036;-54
2023/01/15 07:30:43;;;;;;;7.22;1.40;;;7.60;99.90;;;;;;5057363;28;20519;-56
2023/01/15 07:33:09;;;;;;;6.00;1.27;;;7.60;99.90;;;;;;5056819;28;20131;-54
2023/01/15 07:35:35;;;;;;;4.25;1.20;;;7.50;99.90;;;;;;5061012;28;20064;-54
2023/01/15 07:38:02;;;;;;;8.25;1.80;;;7.60;99.90;;;;;;5060545;28;20394;-55
2023/01/15 07:40:27;;;;;;;7.32;1.30;;;7.50;99.90;;;;;;5054672;28;20555;-52
2023/01/15 07:51:11;;;;;;;4.65;1.35;;;7.50;99.90;;;;;;5053809;28;20326;-54
2023/01/15 07:53:36;;;;;;;8.15;1.27;;;7.40;99.90;;;;;;5060908;28;20032;-55
2023/01/15 07:56:02;;;;;;;9.68;1.70;;;7.30;99.90;;;;;;5059778;28;20060;-56
2023/01/15 07:58:28;;;;;;;7.10;1.65;;;7.40;99.90;;;;;;5061249;28;20079;-56
2023/01/15 08:00:53;;;;;;;5.80;1.40;;;7.50;99.90;;;;;;5064162;28;20036;-55
2023/01/15 08:03:19;;;;;;;14.60;1.60;;;7.30;99.90;;;;;;5054191;28;20229;-56
2023/01/15 08:05:44;;;;;;;5.43;1.25;;;7.40;99.90;;;;;;5056629;28;20058;-56
2023/01/15 08:08:14;;;;;;;8.43;1.45;;;7.40;99.90;;;;;;5055236;28;20110;-56
2023/01/15 08:15:11;;;;;;;7.20;1.38;;;7.40;99.90;;;;;;5053469;28;20071;-55
2023/01/15 08:16:10;;;;;;;8.07;1.30;;;7.40;99.90;;;;;;5051833;28;20067;-56
2023/01/15 08:18:36;;;;;;;10.10;1.42;;;7.40;99.90;;;;;;5056049;28;20064;-57
2023/01/15 08:21:01;;;;;;;8.10;1.38;;;7.40;99.90;;;;;;5056954;28;20167;-55
2023/01/15 08:23:27;;;;;;;5.32;1.17;;;7.30;99.90;;;;;;5056082;28;20908;-56
2023/01/15 08:25:52;;;;;;;8.13;1.20;;;7.30;99.90;;;;;;5051751;28;20040;-55
2023/01/15 08:28:18;;;;;;;9.13;1.20;;;7.30;99.90;;;;;;5059796;28;20033;-56
2023/01/15 08:30:44;;;;;;;4.25;1.00;;;7.30;99.90;;;;;;5053377;28;20044;-54
2023/01/15 08:33:09;;;;;;;6.07;1.17;;;7.30;99.90;;;;;;5056816;28;20032;-55
2023/01/15 08:35:35;;;;;;;5.68;1.13;;;7.30;99.90;;;;;;5057605;28;20387;-55
2023/01/15 08:38:07;;;;;;;8.23;1.23;;;7.30;99.90;;;;;;5056041;28;20033;-56
2023/01/15 08:40:35;;;;;;;5.80;1.17;;;7.20;99.90;;;;;;5056116;28;20045;-56
2023/01/15 08:43:01;;;;;;;4.30;1.15;;;7.20;99.90;;;;;;5057498;28;20535;-55
2023/01/15 08:45:26;;;;;;;7.90;1.38;;;7.20;99.90;;;;;;5059723;28;20031;-57
2023/01/15 08:47:57;;;;;;;3.50;0.90;;;7.20;99.90;;;;;;5057576;28;20060;-55
2023/01/15 08:50:22;;;;;;;5.05;0.90;;;7.20;99.90;;;;;;5054418;28;20094;-57
2023/01/15 08:52:48;;;;;;;3.92;0.70;;;7.20;99.90;;;;;;5055668;28;20582;-56
2023/01/15 08:55:14;;;;;;;4.60;0.82;;;7.00;99.90;;;;;;5061670;28;20036;-57
2023/01/15 08:57:39;;;;;;;6.15;1.20;;;7.00;99.90;;;;;;5064336;28;20035;-55
2023/01/15 09:00:06;;;;;;;4.68;0.80;;;7.00;99.90;;;;;;5052880;28;20068;-55
2023/01/15 09:02:31;;;;;;;4.65;0.90;;;7.00;99.90;;;;;;5063174;28;20033;-55
2023/01/15 09:04:57;;;;;;;4.28;0.88;;;7.10;99.90;;;;;;5066526;28;20551;-57
2023/01/15 09:07:22;;;;;;;4.93;1.00;;;7.00;99.90;;;;;;5051074;28;20598;-56
2023/01/15 09:09:48;;;;;;;7.40;1.00;;;7.10;99.90;;;;;;5064534;28;20033;-55
2023/01/15 09:12:14;;;;;;;6.63;0.98;;;6.90;99.90;;;;;;5055230;28;20052;-56
2023/01/15 09:14:39;;;;;;;4.18;0.93;;;6.80;99.90;;;;;;5067387;28;20575;-56
2023/01/15 09:17:05;;;;;;;6.03;0.93;;;6.90;99.90;;;;;;5054149;28;20658;-55
2023/01/15 09:19:30;;;;;;;4.10;1.10;;;6.90;99.90;;;;;;5056179;28;20118;-57
2023/01/15 09:21:56;;;;;;;6.32;1.10;;;7.00;99.90;;;;;;5061404;28;20040;-57
2023/01/15 09:24:21;;;;;;;9.40;1.35;;;7.00;99.90;;;;;;5057654;28;20132;-56
2023/01/15 09:26:47;;;;;;;5.10;1.00;;;7.00;99.90;;;;;;5059585;28;20067;-57
2023/01/15 09:29:13;;;;;;;4.35;1.10;;;6.90;99.90;;;;;;5057460;28;20025;-55
2023/01/15 09:31:38;;;;;;;5.05;1.17;;;7.00;99.90;;;;;;5058398;28;20042;-55
2023/01/15 09:34:04;;;;;;;7.57;1.33;;;7.00;99.90;;;;;;5056179;28;20040;-55
2023/01/15 09:36:32;;;;;;;8.00;1.60;;;7.10;99.90;;;;;;5055570;28;20029;-57
2023/01/15 09:38:59;;;;;;;4.13;1.45;;;7.10;99.90;;;;;;5060979;28;20040;-55
2023/01/15 09:45:00;;;;;;;9.25;1.23;;;7.20;1.00;;;;;;5062059;28;20051;-56
2023/01/15 09:47:44;;;;;;;6.28;1.38;;;7.30;1.00;;;;;;5059228;28;20071;-56
2023/01/15 09:50:31;;;;;;;10.88;1.83;;;7.20;1.00;;;;;;5055107;28;24027;-57
2023/01/15 09:53:09;;;;;;;9.18;1.38;;;7.30;1.00;;;;;;5064387;28;20037;-56
2023/01/15 09:55:46;;;;;;;9.02;1.50;;;7.40;1.00;;;;;;5065577;28;20046;-56
2023/01/15 09:58:14;;;;;;;10.98;1.73;;;7.40;1.00;;;;;;5053913;28;20029;-56
2023/01/15 10:00:49;;;;;;;8.43;1.35;;;7.50;1.00;;;;;;5061362;28;20573;-57
2023/01/15 10:03:17;;;;;;;9.05;1.48;;;7.50;1.00;;;;;;5051836;28;21230;-57
2023/01/15 10:05:52;;;;;;;7.63;1.35;;;7.60;1.00;;;;;;5055432;28;20029;-56
2023/01/15 10:08:52;;;;;;;6.75;1.52;;;7.70;1.00;;;;;;5058746;28;20047;-56
2023/01/15 10:14:50;;;;;;;8.35;1.33;;;7.70;1.00;;;;;;5057377;28;20055;-56
2023/01/15 10:17:26;;;;;;;7.63;1.20;;;7.60;1.00;;;;;;5055591;28;20098;-56
2023/01/15 10:19:52;;;;;;;9.57;1.45;;;7.60;1.00;;;;;;5059582;28;20071;-57
2023/01/15 10:22:32;;;;;;;8.45;1.20;;;7.60;99.90;;;;;;5058449;28;20037;-57
2023/01/15 10:25:01;;;;;;;10.98;1.40;;;7.60;1.00;;;;;;5057214;28;20430;-57
2023/01/15 10:27:31;;;;;;;5.32;1.52;;;7.60;1.00;;;;;;5055094;28;20718;-56
2023/01/15 10:30:03;;;;;;;8.00;1.50;;;7.60;99.90;;;;;;5063368;28;20021;-56
2023/01/15 10:32:37;;;;;;;12.90;1.95;;;7.60;1.00;;;;;;5053564;28;20037;-56
2023/01/15 10:35:20;;;;;;;6.85;1.60;;;7.70;1.00;;;;;;5054810;28;20459;-56
2023/01/15 10:38:14;;;;;;;8.63;1.35;;;7.80;1.00;;;;;;5052571;28;20048;-56
2023/01/15 10:41:08;;;;;;;6.70;1.13;;;7.80;1.00;;;;;;5062960;28;20040;-56
2023/01/15 10:43:54;;;;;;;7.53;1.60;;;7.70;1.00;;;;;;5058671;28;20032;-55
2023/01/15 10:46:32;;;;;;;10.77;1.60;;;7.70;1.00;;;;;;5061416;28;20033;-55
2023/01/15 10:49:14;;;;;;;7.57;1.55;;;7.90;1.00;;;;;;5063748;28;20060;-56
2023/01/15 10:51:54;;;;;;;8.63;1.85;;;8.00;1.00;;;;;;5055886;28;20025;-55
2023/01/15 10:54:35;;;;;;;13.07;1.98;;;8.00;1.00;;;;;;5063871;28;20462;-56
2023/01/15 10:57:22;;;;;;;5.82;1.17;;;8.10;1.00;;;;;;5051928;28;20104;-55
2023/01/15 10:59:55;;;;;;;10.57;1.90;;;8.10;1.00;;;;;;5057151;28;20080;-57
2023/01/15 11:02:32;;;;;;;8.50;1.58;;;8.20;1.00;;;;;;5062513;28;20044;-56
2023/01/15 11:04:58;;;;;;;10.45;1.70;;;8.30;1.00;;;;;;5064241;28;20039;-56
2023/01/15 11:07:32;;;;;;;6.55;1.40;;;8.30;1.00;;;;;;5056573;28;20032;-56
2023/01/15 11:10:03;;;;;;;7.50;1.30;;;8.30;1.00;;;;;;5056066;28;20032;-57
2023/01/15 11:21:17;;;;;;;8.88;1.60;;;8.30;1.00;;;;;;5054368;28;20128;-57
2023/01/15 11:23:43;;;;;;;8.80;1.40;;;8.10;1.00;;;;;;5057057;28;20056;-55
2023/01/15 11:26:16;;;;;;;7.65;1.45;;;8.10;1.00;;;;;;5059132;28;20475;-56
2023/01/15 11:28:43;;;;;;;6.93;1.17;;;8.30;1.00;;;;;;5061766;28;20036;-57
2023/01/15 11:31:10;;;;;;;6.75;1.38;;;8.40;1.00;;;;;;5055213;28;20044;-56
2023/01/15 11:33:37;;;;;;;6.18;1.38;;;8.30;99.90;;;;;;5055599;28;20074;-57
2023/01/15 11:36:06;;;;;;;10.52;1.70;;;8.30;1.00;;;;;;5059370;28;20115;-56
2023/01/15 11:38:49;;;;;;;6.13;1.20;;;8.40;1.00;;;;;;5056641;28;20033;-56
2023/01/15 11:41:17;;;;;;;5.78;1.20;;;8.30;1.00;;;;;;5057039;28;20036;-57
2023/01/15 11:52:09;;;;;;;5.45;1.27;;;8.20;99.90;;;;;;5056341;28;20128;-57
2023/01/15 11:54:44;;;;;;;8.73;1.38;;;8.20;1.00;;;;;;5054909;28;20037;-56
2023/01/15 11:57:10;;;;;;;5.60;1.40;;;8.20;1.00;;;;;;5060300;28;20368;-57
2023/01/15 11:59:37;;;;;;;4.15;0.80;;;8.20;99.90;;;;;;5058905;28;20024;-57
2023/01/15 12:02:17;;;;;;;4.63;1.08;;;8.20;1.00;;;;;;5057321;28;20059;-56
2023/01/15 12:04:54;;;;;;;23.75;12.32;;;8.20;99.90;;;;;;5058400;28;20482;-54
2023/01/15 12:07:23;;;;;;;5.65;0.90;;;8.30;99.90;;;;;;5055615;28;20116;-53
2023/01/15 12:10:01;;;;;;;4.15;0.93;;;8.20;99.90;;;;;;5056921;28;20086;-55
2023/01/15 12:12:45;;;;;;;6.53;1.05;;;8.20;1.00;;;;;;5050100;28;20029;-54
2023/01/15 12:15:25;;;;;;;;;;;8.40;99.90;;;;;;5053645;28;20638;-51
2023/01/15 12:18:30;;;;;;;4.35;0.95;;;8.40;99.90;;;;;;5056387;28;19969;-53
2023/01/15 12:21:20;;;;;;;4.00;0.88;;;8.40;99.90;;;;;;5052363;28;20055;-54
2023/01/15 12:24:23;;;;;;;3.65;0.88;;;8.40;99.90;;;;;;5056648;28;20047;-51
2023/01/15 12:27:20;;;;;;;3.63;0.85;;;8.30;99.90;;;;;;5056192;28;20086;-53
2023/01/15 12:29:53;;;;;;;4.50;0.98;;;8.20;99.90;;;;;;5056684;28;20029;-55
2023/01/15 12:32:22;;;;;;;;;;;8.10;99.90;;;;;;5060877;28;20040;-53
2023/01/15 12:34:59;;;;;;;3.85;0.90;;;8.20;99.90;;;;;;5063991;28;19962;-55
2023/01/15 12:37:39;;;;;;;3.35;0.90;;;8.10;99.90;;;;;;5062454;28;20040;-53
2023/01/15 12:40:20;;;;;;;8.70;0.95;;;8.10;99.90;;;;;;5056928;28;20082;-51
2023/01/15 12:45:47;;;;;;;7.72;1.05;;;8.30;99.90;;;;;;5056455;28;20063;-53
2023/01/15 12:48:22;;;;;;;6.10;1.05;;;8.30;99.90;;;;;;5055892;28;20033;-51
2023/01/15 12:50:55;;;;;;;6.15;1.08;;;8.30;99.90;;;;;;5055828;28;20028;-53
2023/01/15 12:53:31;;;;;;;5.75;1.08;;;8.20;99.90;;;;;;5050677;28;20033;-54
2023/01/15 12:56:03;;;;;;;5.82;0.88;;;8.20;99.90;;;;;;5058284;28;20515;-54
2023/01/15 12:59:00;;;;;;;9.27;1.05;;;8.30;99.90;;;;;;5054112;28;20028;-53
2023/01/15 13:01:36;;;;;;;5.85;1.02;;;8.20;99.90;;;;;;5059374;28;20032;-51
2023/01/15 13:04:17;;;;;;;4.50;0.90;;;8.20;99.90;;;;;;5051713;28;20033;-50
2023/01/15 13:06:50;;;;;;;5.20;1.17;;;8.20;99.90;;;;;;5051855;28;20032;-51
2023/01/15 13:09:48;;;;;;;4.97;0.90;;;8.20;99.90;;;;;;5050058;28;20040;-53
2023/01/15 13:12:15;;;;;;;4.60;1.10;;;8.20;99.90;;;;;;5057754;28;20074;-51
2023/01/15 13:14:42;;;;;;;4.57;0.82;;;8.20;99.90;;;;;;5057565;28;20118;-55
2023/01/15 13:17:28;;;;;;;3.97;0.90;;;8.10;99.90;;;;;;5059253;28;20132;-51
2023/01/15 13:20:09;;;;;;;5.32;0.90;;;8.20;99.90;;;;;;5048956;28;20454;-52
2023/01/15 13:22:46;;;;;;;5.68;1.10;;;8.20;1.00;;;;;;5053875;28;20041;-51
2023/01/15 13:25:33;;;;;;;4.82;0.90;;;8.20;1.00;;;;;;5054100;28;20056;-56
2023/01/15 13:28:05;;;;;;;6.28;1.23;;;8.30;99.90;;;;;;5052191;28;20530;-53
2023/01/15 13:30:52;;;;;;;4.63;1.20;;;8.20;99.90;;;;;;5055370;28;20474;-54
2023/01/15 13:33:44;;;;;;;4.43;1.02;;;8.10;99.90;;;;;;5056362;28;20033;-50
2023/01/15 13:36:17;;;;;;;6.80;1.38;;;8.20;99.90;;;;;;5047923;28;20567;-53
2023/01/15 13:38:45;;;;;;;;;;;8.20;99.90;;;;;;5053119;28;20437;-53
2023/01/15 13:42:30;;;;;;;6.13;1.30;;;8.10;99.90;;;;;;5055629;28;19912;-52
2023/01/15 13:44:04;;;;;;;4.57;1.30;;;8.20;99.90;;;;;;5056308;28;20054;-52
2023/01/15 13:46:30;;;;;;;5.88;1.05;;;8.20;99.90;;;;;;5061218;28;20044;-51
2023/01/15 13:48:55;;;;;;;3.85;1.08;;;8.10;99.90;;;;;;5058642;28;20036;-52
2023/01/15 13:51:28;;;;;;;4.78;1.17;;;8.10;99.90;;;;;;5055951;28;20049;-52
2023/01/15 13:53:56;;;;;;;4.78;1.08;;;8.20;99.90;;;;;;5061517;28;20388;-55
2023/01/15 13:56:31;;;;;;;6.32;1.10;;;8.20;99.90;;;;;;5063619;28;20139;-52
2023/01/15 13:59:00;;;;;;;5.78;1.00;;;8.20;99.90;;;;;;5064953;28;20063;-52
2023/01/15 14:01:36;;;;;;;3.80;1.35;;;8.10;99.90;;;;;;5054564;28;20044;-52
2023/01/15 14:04:14;;;;;;;4.22;0.88;;;8.00;99.90;;;;;;5064150;28;20036;-54
2023/01/15 14:06:50;;;;;;;3.70;1.00;;;8.10;99.90;;;;;;5058765;28;20525;-52
2023/01/15 14:09:19;;;;;;;7.05;1.30;;;8.10;99.90;;;;;;5056403;28;20127;-52